sensor_id;sensor_type;location;lat;lon;timestamp;pressure;altitude;pressure_sealevel;temperature;humidity
71974;BME280;59840;52.122;5.404;2023-05-22T00:02:16;101705.13;;;14.95;100.00
71974;BME280;59840;52.122;5.404;2023-05-22T00:04:43;101694.72;;;14.93;100.00
71974;BME280;59840;52.122;5.404;2023-05-22T00:07:09;101687.88;;;14.97;100.00
71974;BME280;59840;52.122;5.404;2023-05-22T00:09:36;101687.38;;;15.00;100.00
71974;BME280;59840;52.122;5.404;2023-05-22T00:12:03;101693.19;;;14.97;100.00
71974;BME280;59840;52.122;5.404;2023-05-22T00:14:29;101677.75;;;14.94;100.00
71974;BME280;59840;52.122;5.404;2023-05-22T00:16:56;101673.97;;;14.90;100.00
71974;BME280;59840;52.122;5.404;2023-05-22T00:19:23;101677.44;;;14.91;100.00
71974;BME280;59840;52.122;5.404;2023-05-22T00:21:50;101672.41;;;14.89;100.00
71974;BME280;59840;52.122;5.404;2023-05-22T00:24:17;101672.13;;;14.91;100.00
71974;BME280;59840;52.122;5.404;2023-05-22T00:26:44;101670.25;;;14.86;100.00
71974;BME280;59840;52.122;5.404;2023-05-22T00:29:10;101658.25;;;14.84;100.00
71974;BME280;59840;52.122;5.404;2023-05-22T00:31:37;101652.41;;;14.82;100.00
71974;BME280;59840;52.122;5.404;2023-05-22T00:34:04;101658.50;;;14.82;100.00
71974;BME280;59840;52.122;5.404;2023-05-22T00:36:30;101656.66;;;14.83;100.00
71974;BME280;59840;52.122;5.404;2023-05-22T00:38:57;101648.13;;;14.81;100.00
71974;BME280;59840;52.122;5.404;2023-05-22T00:41:24;101651.84;;;14.80;100.00
71974;BME280;59840;52.122;5.404;2023-05-22T00:43:51;101655.31;;;14.80;100.00
71974;BME280;59840;52.122;5.404;2023-05-22T00:46:18;101647.88;;;14.82;100.00
71974;BME280;59840;52.122;5.404;2023-05-22T00:48:48;101643.63;;;14.81;100.00
71974;BME280;59840;52.122;5.404;2023-05-22T00:51:15;101643.88;;;14.80;100.00
71974;BME280;59840;52.122;5.404;2023-05-22T00:53:42;101638.56;;;14.80;100.00
71974;BME280;59840;52.122;5.404;2023-05-22T00:56:09;101637.50;;;14.81;100.00
71974;BME280;59840;52.122;5.404;2023-05-22T00:58:38;101646.03;;;14.83;100.00
71974;BME280;59840;52.122;5.404;2023-05-22T01:01:04;101635.91;;;14.80;100.00
71974;BME280;59840;52.122;5.404;2023-05-22T01:03:33;101640.16;;;14.81;100.00
71974;BME280;59840;52.122;5.404;2023-05-22T01:06:00;101633.56;;;14.83;100.00
71974;BME280;59840;52.122;5.404;2023-05-22T01:08:27;101627.44;;;14.83;100.00
71974;BME280;59840;52.122;5.404;2023-05-22T01:11:01;101624.53;;;14.84;100.00
71974;BME280;59840;52.122;5.404;2023-05-22T01:13:41;101619.22;;;14.84;100.00
71974;BME280;59840;52.122;5.404;2023-05-22T01:25:05;101605.69;;;14.86;100.00
71974;BME280;59840;52.122;5.404;2023-05-22T01:33:05;101614.19;;;14.88;100.00
71974;BME280;59840;52.122;5.404;2023-05-22T01:35:34;101614.47;;;14.91;100.00
71974;BME280;59840;52.122;5.404;2023-05-22T01:38:02;101616.31;;;14.91;100.00
71974;BME280;59840;52.122;5.404;2023-05-22T01:40:29;101618.97;;;14.91;100.00
71974;BME280;59840;52.122;5.404;2023-05-22T01:42:56;101612.34;;;14.93;100.00
71974;BME280;59840;52.122;5.404;2023-05-22T01:45:23;101609.69;;;14.93;100.00
71974;BME280;59840;52.122;5.404;2023-05-22T01:47:51;101598.81;;;14.90;100.00
71974;BME280;59840;52.122;5.404;2023-05-22T01:50:19;101602.22;;;14.90;100.00
71974;BME280;59840;52.122;5.404;2023-05-22T01:53:17;101601.97;;;14.92;100.00
71974;BME280;59840;52.122;5.404;2023-05-22T02:01:02;101589.97;;;14.84;100.00
71974;BME280;59840;52.122;5.404;2023-05-22T02:03:30;101587.88;;;14.86;100.00
71974;BME280;59840;52.122;5.404;2023-05-22T02:06:01;101588.38;;;14.83;100.00
71974;BME280;59840;52.122;5.404;2023-05-22T02:08:28;101585.97;;;14.82;100.00
71974;BME280;59840;52.122;5.404;2023-05-22T02:10:56;101586.69;;;14.72;100.00
71974;BME280;59840;52.122;5.404;2023-05-22T02:13:24;101578.94;;;14.65;100.00
71974;BME280;59840;52.122;5.404;2023-05-22T02:15:51;101577.31;;;14.64;100.00
71974;BME280;59840;52.122;5.404;2023-05-22T02:18:18;101578.13;;;14.65;100.00
71974;BME280;59840;52.122;5.404;2023-05-22T02:20:45;101578.63;;;14.62;100.00
71974;BME280;59840;52.122;5.404;2023-05-22T02:23:11;101579.69;;;14.61;100.00
71974;BME280;59840;52.122;5.404;2023-05-22T02:25:38;101583.13;;;14.61;100.00
71974;BME280;59840;52.122;5.404;2023-05-22T02:28:05;101571.97;;;14.59;100.00
71974;BME280;59840;52.122;5.404;2023-05-22T02:30:31;101571.94;;;14.54;100.00
71974;BME280;59840;52.122;5.404;2023-05-22T02:32:58;101561.56;;;14.53;100.00
71974;BME280;59840;52.122;5.404;2023-05-22T02:35:25;101571.66;;;14.56;100.00
71974;BME280;59840;52.122;5.404;2023-05-22T02:37:52;101566.09;;;14.52;100.00
71974;BME280;59840;52.122;5.404;2023-05-22T02:40:19;101563.94;;;14.49;100.00
71974;BME280;59840;52.122;5.404;2023-05-22T02:42:45;101564.72;;;14.50;100.00
71974;BME280;59840;52.122;5.404;2023-05-22T02:45:12;101570.03;;;14.50;100.00
71974;BME280;59840;52.122;5.404;2023-05-22T02:47:38;101559.91;;;14.47;100.00
71974;BME280;59840;52.122;5.404;2023-05-22T02:50:05;101563.06;;;14.44;100.00
71974;BME280;59840;52.122;5.404;2023-05-22T02:52:32;101564.31;;;14.36;100.00
71974;BME280;59840;52.122;5.404;2023-05-22T02:55:00;101558.38;;;14.29;100.00
71974;BME280;59840;52.122;5.404;2023-05-22T02:57:26;101555.72;;;14.29;100.00
71974;BME280;59840;52.122;5.404;2023-05-22T02:59:53;101555.22;;;14.32;100.00
71974;BME280;59840;52.122;5.404;2023-05-22T03:02:20;101557.94;;;14.37;100.00
71974;BME280;59840;52.122;5.404;2023-05-22T03:04:46;101554.72;;;14.35;100.00
71974;BME280;59840;52.122;5.404;2023-05-22T03:07:13;101555.78;;;14.34;100.00
71974;BME280;59840;52.122;5.404;2023-05-22T03:09:40;101545.97;;;14.34;100.00
71974;BME280;59840;52.122;5.404;2023-05-22T03:12:07;101548.38;;;14.36;100.00
71974;BME280;59840;52.122;5.404;2023-05-22T03:14:34;101557.94;;;14.37;100.00
71974;BME280;59840;52.122;5.404;2023-05-22T03:17:00;101551.03;;;14.36;100.00
71974;BME280;59840;52.122;5.404;2023-05-22T03:19:27;101544.34;;;14.33;100.00
71974;BME280;59840;52.122;5.404;2023-05-22T03:21:53;101549.66;;;14.33;100.00
71974;BME280;59840;52.122;5.404;2023-05-22T03:24:20;101550.97;;;14.31;100.00
71974;BME280;59840;52.122;5.404;2023-05-22T03:26:47;101551.22;;;14.29;100.00
71974;BME280;59840;52.122;5.404;2023-05-22T03:29:13;101552.03;;;14.30;100.00
71974;BME280;59840;52.122;5.404;2023-05-22T03:31:40;101551.47;;;14.28;100.00
71974;BME280;59840;52.122;5.404;2023-05-22T03:34:06;101545.56;;;14.21;100.00
71974;BME280;59840;52.122;5.404;2023-05-22T03:36:33;101552.47;;;14.22;100.00
71974;BME280;59840;52.122;5.404;2023-05-22T03:39:01;101552.47;;;14.22;100.00
71974;BME280;59840;52.122;5.404;2023-05-22T03:41:28;101551.91;;;14.15;100.00
71974;BME280;59840;52.122;5.404;2023-05-22T03:43:55;101548.69;;;14.13;100.00
71974;BME280;59840;52.122;5.404;2023-05-22T03:46:22;101554.78;;;14.13;100.00
71974;BME280;59840;52.122;5.404;2023-05-22T03:48:49;101559.59;;;14.16;100.00
71974;BME280;59840;52.122;5.404;2023-05-22T03:51:16;101558.31;;;14.19;100.00
71974;BME280;59840;52.122;5.404;2023-05-22T03:53:45;101564.66;;;14.18;100.00
71974;BME280;59840;52.122;5.404;2023-05-22T03:56:12;101563.31;;;14.15;100.00
71974;BME280;59840;52.122;5.404;2023-05-22T03:58:39;101563.50;;;14.08;100.00
71974;BME280;59840;52.122;5.404;2023-05-22T04:01:05;101555.25;;;14.05;100.00
71974;BME280;59840;52.122;5.404;2023-05-22T04:03:36;101553.63;;;14.04;100.00
71974;BME280;59840;52.122;5.404;2023-05-22T04:06:03;101552.09;;;14.08;100.00
71974;BME280;59840;52.122;5.404;2023-05-22T04:08:31;101552.88;;;14.08;100.00
71974;BME280;59840;52.122;5.404;2023-05-22T04:10:57;101549.19;;;14.09;100.00
71974;BME280;59840;52.122;5.404;2023-05-22T04:13:24;101552.09;;;14.08;100.00
71974;BME280;59840;52.122;5.404;2023-05-22T04:15:52;101559.19;;;14.02;100.00
71974;BME280;59840;52.122;5.404;2023-05-22T04:18:18;101555.72;;;14.02;100.00
71974;BME280;59840;52.122;5.404;2023-05-22T04:20:45;101550.69;;;14.00;100.00
71974;BME280;59840;52.122;5.404;2023-05-22T04:23:12;101553.38;;;14.05;100.00
71974;BME280;59840;52.122;5.404;2023-05-22T04:25:38;101554.94;;;14.01;100.00
71974;BME280;59840;52.122;5.404;2023-05-22T04:28:05;101570.28;;;13.99;100.00
71974;BME280;59840;52.122;5.404;2023-05-22T04:30:32;101574.50;;;13.95;100.00
71974;BME280;59840;52.122;5.404;2023-05-22T04:32:59;101591.16;;;13.91;100.00
71974;BME280;59840;52.122;5.404;2023-05-22T04:35:27;101591.94;;;13.91;100.00
71974;BME280;59840;52.122;5.404;2023-05-22T04:37:58;101589.84;;;13.93;100.00
71974;BME280;59840;52.122;5.404;2023-05-22T04:40:28;101590.66;;;13.94;100.00
71974;BME280;59840;52.122;5.404;2023-05-22T04:42:55;101599.97;;;13.96;100.00
71974;BME280;59840;52.122;5.404;2023-05-22T04:45:25;101592.81;;;13.97;100.00
71974;BME280;59840;52.122;5.404;2023-05-22T04:47:54;101601.88;;;14.01;100.00
71974;BME280;59840;52.122;5.404;2023-05-22T04:50:21;101613.56;;;14.00;100.00
71974;BME280;59840;52.122;5.404;2023-05-22T04:52:49;101618.38;;;14.03;100.00
71974;BME280;59840;52.122;5.404;2023-05-22T04:55:16;101614.66;;;14.04;100.00
71974;BME280;59840;52.122;5.404;2023-05-22T04:57:44;101618.69;;;14.06;100.00
71974;BME280;59840;52.122;5.404;2023-05-22T05:00:11;101626.16;;;14.09;100.00
71974;BME280;59840;52.122;5.404;2023-05-22T05:02:39;101616.09;;;14.12;100.00
71974;BME280;59840;52.122;5.404;2023-05-22T05:05:06;101621.41;;;14.12;100.00
71974;BME280;59840;52.122;5.404;2023-05-22T05:07:37;101620.59;;;14.11;100.00
71974;BME280;59840;52.122;5.404;2023-05-22T05:10:04;101613.19;;;14.13;100.00
71974;BME280;59840;52.122;5.404;2023-05-22T05:12:32;101624.91;;;14.17;100.00
71974;BME280;59840;52.122;5.404;2023-05-22T05:14:59;101628.66;;;14.21;100.00
71974;BME280;59840;52.122;5.404;2023-05-22T05:17:26;101620.69;;;14.21;100.00
71974;BME280;59840;52.122;5.404;2023-05-22T05:19:52;101610.44;;;14.30;100.00
71974;BME280;59840;52.122;5.404;2023-05-22T05:22:19;101609.97;;;14.38;100.00
71974;BME280;59840;52.122;5.404;2023-05-22T05:24:46;101602.16;;;14.48;100.00
71974;BME280;59840;52.122;5.404;2023-05-22T05:27:12;101615.00;;;14.61;100.00
71974;BME280;59840;52.122;5.404;2023-05-22T05:29:39;101612.66;;;14.65;100.00
71974;BME280;59840;52.122;5.404;2023-05-22T05:32:06;101618.31;;;14.73;100.00
71974;BME280;59840;52.122;5.404;2023-05-22T05:34:33;101603.81;;;14.86;100.00
71974;BME280;59840;52.122;5.404;2023-05-22T05:37:00;101608.94;;;14.98;100.00
71974;BME280;59840;52.122;5.404;2023-05-22T05:39:28;101601.81;;;15.03;100.00
71974;BME280;59840;52.122;5.404;2023-05-22T05:41:55;101601.59;;;15.10;100.00
71974;BME280;59840;52.122;5.404;2023-05-22T05:44:21;101599.28;;;15.19;100.00
71974;BME280;59840;52.122;5.404;2023-05-22T05:46:48;101611.25;;;15.26;100.00
71974;BME280;59840;52.122;5.404;2023-05-22T05:49:14;101608.63;;;15.31;100.00
71974;BME280;59840;52.122;5.404;2023-05-22T05:51:41;101601.78;;;15.40;100.00
71974;BME280;59840;52.122;5.404;2023-05-22T05:54:08;101600.75;;;15.47;100.00
71974;BME280;59840;52.122;5.404;2023-05-22T05:56:34;101594.41;;;15.53;100.00
71974;BME280;59840;52.122;5.404;2023-05-22T05:59:01;101607.22;;;15.61;100.00
71974;BME280;59840;52.122;5.404;2023-05-22T06:01:29;101597.66;;;15.65;100.00
71974;BME280;59840;52.122;5.404;2023-05-22T06:03:58;101596.34;;;15.67;100.00
71974;BME280;59840;52.122;5.404;2023-05-22T06:06:31;101597.72;;;15.75;100.00
71974;BME280;59840;52.122;5.404;2023-05-22T06:09:02;101601.50;;;15.84;100.00
71974;BME280;59840;52.122;5.404;2023-05-22T06:11:32;101592.22;;;15.92;100.00
71974;BME280;59840;52.122;5.404;2023-05-22T06:14:03;101598.31;;;15.97;100.00
71974;BME280;59840;52.122;5.404;2023-05-22T06:16:30;101599.69;;;16.05;100.00
71974;BME280;59840;52.122;5.404;2023-05-22T06:18:57;101603.72;;;16.13;100.00
71974;BME280;59840;52.122;5.404;2023-05-22T06:21:24;101599.75;;;16.20;100.00
71974;BME280;59840;52.122;5.404;2023-05-22T06:23:51;101607.75;;;16.25;100.00
71974;BME280;59840;52.122;5.404;2023-05-22T06:26:18;101596.81;;;16.32;100.00
71974;BME280;59840;52.122;5.404;2023-05-22T06:28:44;101605.09;;;16.40;100.00
71974;BME280;59840;52.122;5.404;2023-05-22T06:31:11;101614.16;;;16.45;100.00
71974;BME280;59840;52.122;5.404;2023-05-22T06:33:37;101618.69;;;16.49;100.00
71974;BME280;59840;52.122;5.404;2023-05-22T06:36:06;101621.66;;;16.58;100.00
71974;BME280;59840;52.122;5.404;2023-05-22T06:38:34;101621.91;;;16.61;100.00
71974;BME280;59840;52.122;5.404;2023-05-22T06:41:04;101616.88;;;16.65;100.00
71974;BME280;59840;52.122;5.404;2023-05-22T06:43:30;101624.59;;;16.66;100.00
71974;BME280;59840;52.122;5.404;2023-05-22T06:45:57;101617.66;;;16.65;100.00
71974;BME280;59840;52.122;5.404;2023-05-22T06:48:24;101624.88;;;16.70;100.00
71974;BME280;59840;52.122;5.404;2023-05-22T06:50:51;101621.66;;;16.73;100.00
71974;BME280;59840;52.122;5.404;2023-05-22T06:53:17;101624.06;;;16.74;100.00
71974;BME280;59840;52.122;5.404;2023-05-22T06:55:44;101624.06;;;16.80;100.00
71974;BME280;59840;52.122;5.404;2023-05-22T06:58:10;101621.41;;;16.90;100.00
71974;BME280;59840;52.122;5.404;2023-05-22T07:00:37;101626.75;;;16.95;100.00
71974;BME280;59840;52.122;5.404;2023-05-22T07:03:04;101631.00;;;17.06;100.00
71974;BME280;59840;52.122;5.404;2023-05-22T07:05:32;101628.31;;;17.11;100.00
71974;BME280;59840;52.122;5.404;2023-05-22T07:07:58;101626.47;;;17.17;100.00
71974;BME280;59840;52.122;5.404;2023-05-22T07:10:25;101633.13;;;17.29;100.00
71974;BME280;59840;52.122;5.404;2023-05-22T07:12:53;101642.69;;;17.35;100.00
71974;BME280;59840;52.122;5.404;2023-05-22T07:15:20;101640.56;;;17.37;100.00
71974;BME280;59840;52.122;5.404;2023-05-22T07:17:46;101643.75;;;17.39;100.00
71974;BME280;59840;52.122;5.404;2023-05-22T07:20:14;101644.53;;;17.50;100.00
71974;BME280;59840;52.122;5.404;2023-05-22T07:22:41;101629.31;;;17.61;100.00
71974;BME280;59840;52.122;5.404;2023-05-22T07:25:08;101636.75;;;17.69;100.00
71974;BME280;59840;52.122;5.404;2023-05-22T07:27:35;101631.41;;;17.74;100.00
71974;BME280;59840;52.122;5.404;2023-05-22T07:30:02;101638.31;;;17.85;100.00
71974;BME280;59840;52.122;5.404;2023-05-22T07:32:28;101636.16;;;17.92;100.00
71974;BME280;59840;52.122;5.404;2023-05-22T07:34:55;101634.53;;;17.96;100.00
71974;BME280;59840;52.122;5.404;2023-05-22T07:37:21;101636.41;;;18.01;100.00
71974;BME280;59840;52.122;5.404;2023-05-22T07:39:48;101630.19;;;18.05;100.00
71974;BME280;59840;52.122;5.404;2023-05-22T07:42:15;101632.31;;;18.14;100.00
71974;BME280;59840;52.122;5.404;2023-05-22T07:44:42;101635.78;;;18.14;100.00
71974;BME280;59840;52.122;5.404;2023-05-22T07:47:08;101633.88;;;18.20;100.00
71974;BME280;59840;52.122;5.404;2023-05-22T07:49:35;101625.81;;;18.30;100.00
71974;BME280;59840;52.122;5.404;2023-05-22T07:52:01;101630.56;;;18.38;99.54
71974;BME280;59840;52.122;5.404;2023-05-22T07:54:28;101638.28;;;18.39;100.00
71974;BME280;59840;52.122;5.404;2023-05-22T07:56:54;101637.97;;;18.51;100.00
71974;BME280;59840;52.122;5.404;2023-05-22T07:59:21;101641.41;;;18.57;99.46
71974;BME280;59840;52.122;5.404;2023-05-22T08:01:49;101638.19;;;18.65;100.00
71974;BME280;59840;52.122;5.404;2023-05-22T08:04:15;101645.31;;;18.74;99.05
71974;BME280;59840;52.122;5.404;2023-05-22T08:06:42;101644.72;;;18.83;96.88
71974;BME280;59840;52.122;5.404;2023-05-22T08:09:09;101647.88;;;18.90;97.67
71974;BME280;59840;52.122;5.404;2023-05-22T08:11:36;101647.56;;;18.96;98.36
71974;BME280;59840;52.122;5.404;2023-05-22T08:14:05;101650.63;;;19.08;99.40
71974;BME280;59840;52.122;5.404;2023-05-22T08:16:32;101651.88;;;19.21;98.45
71974;BME280;59840;52.122;5.404;2023-05-22T08:19:00;101650.13;;;19.35;98.28
71974;BME280;59840;52.122;5.404;2023-05-22T08:21:27;101649.28;;;19.40;95.80
71974;BME280;59840;52.122;5.404;2023-05-22T08:23:53;101651.88;;;19.45;96.83
71974;BME280;59840;52.122;5.404;2023-05-22T08:26:20;101661.16;;;19.58;95.44
71974;BME280;59840;52.122;5.404;2023-05-22T08:28:46;101658.38;;;19.68;91.52
71974;BME280;59840;52.122;5.404;2023-05-22T08:31:13;101657.31;;;19.69;93.11
71974;BME280;59840;52.122;5.404;2023-05-22T08:33:39;101653.41;;;19.80;91.74
71974;BME280;59840;52.122;5.404;2023-05-22T08:36:06;101644.47;;;19.90;90.29
71974;BME280;59840;52.122;5.404;2023-05-22T08:38:33;101646.00;;;19.96;91.25
71974;BME280;59840;52.122;5.404;2023-05-22T08:40:59;101648.63;;;20.01;88.74
71974;BME280;59840;52.122;5.404;2023-05-22T08:43:26;101644.28;;;20.05;90.03
71974;BME280;59840;52.122;5.404;2023-05-22T08:46:04;101649.75;;;20.14;92.46
71974;BME280;59840;52.122;5.404;2023-05-22T08:48:31;101645.94;;;20.20;89.87
71974;BME280;59840;52.122;5.404;2023-05-22T08:51:02;101637.84;;;20.25;88.49
71974;BME280;59840;52.122;5.404;2023-05-22T08:53:39;101637.25;;;20.28;89.04
71974;BME280;59840;52.122;5.404;2023-05-22T08:56:08;101644.44;;;20.32;89.91
71974;BME280;59840;52.122;5.404;2023-05-22T08:58:36;101643.94;;;20.49;89.90
71974;BME280;59840;52.122;5.404;2023-05-22T09:01:04;101640.59;;;20.57;88.62
71974;BME280;59840;52.122;5.404;2023-05-22T09:03:31;101641.41;;;20.58;88.03
71974;BME280;59840;52.122;5.404;2023-05-22T09:06:00;101641.19;;;20.54;89.02
71974;BME280;59840;52.122;5.404;2023-05-22T09:08:27;101628.28;;;20.56;90.09
71974;BME280;59840;52.122;5.404;2023-05-22T09:10:54;101637.78;;;20.67;89.00
71974;BME280;59840;52.122;5.404;2023-05-22T09:13:29;101636.75;;;20.63;85.61
71974;BME280;59840;52.122;5.404;2023-05-22T09:16:07;101634.72;;;20.55;86.01
71974;BME280;59840;52.122;5.404;2023-05-22T09:18:38;101632.47;;;20.62;83.57
71974;BME280;59840;52.122;5.404;2023-05-22T09:21:05;101635.50;;;20.74;83.65
71974;BME280;59840;52.122;5.404;2023-05-22T09:23:52;101631.84;;;20.84;82.16
71974;BME280;59840;52.122;5.404;2023-05-22T09:26:19;101632.78;;;20.93;81.43
71974;BME280;59840;52.122;5.404;2023-05-22T09:28:46;101627.13;;;20.95;80.64
71974;BME280;59840;52.122;5.404;2023-05-22T09:31:13;101627.50;;;20.88;79.30
71974;BME280;59840;52.122;5.404;2023-05-22T09:33:42;101628.78;;;20.77;77.44
71974;BME280;59840;52.122;5.404;2023-05-22T09:36:09;101627.19;;;20.90;78.78
71974;BME280;59840;52.122;5.404;2023-05-22T09:38:36;101625.66;;;21.02;80.82
71974;BME280;59840;52.122;5.404;2023-05-22T09:41:03;101621.88;;;21.17;79.58
71974;BME280;59840;52.122;5.404;2023-05-22T09:43:30;101613.13;;;20.98;79.01
71974;BME280;59840;52.122;5.404;2023-05-22T09:46:02;101615.72;;;21.03;78.09
71974;BME280;59840;52.122;5.404;2023-05-22T09:48:34;101619.31;;;21.12;78.22
71974;BME280;59840;52.122;5.404;2023-05-22T09:51:03;101625.88;;;21.20;77.35
71974;BME280;59840;52.122;5.404;2023-05-22T09:53:31;101616.50;;;21.17;78.84
71974;BME280;59840;52.122;5.404;2023-05-22T09:55:59;101618.69;;;21.15;78.30
71974;BME280;59840;52.122;5.404;2023-05-22T09:58:26;101618.06;;;21.23;81.56
71974;BME280;59840;52.122;5.404;2023-05-22T10:00:56;101619.56;;;21.43;80.50
71974;BME280;59840;52.122;5.404;2023-05-22T10:03:25;101618.47;;;21.44;78.15
71974;BME280;59840;52.122;5.404;2023-05-22T10:05:53;101622.31;;;21.24;78.74
71974;BME280;59840;52.122;5.404;2023-05-22T10:08:31;101619.31;;;21.12;75.83
71974;BME280;59840;52.122;5.404;2023-05-22T10:11:02;101619.69;;;21.19;73.43
71974;BME280;59840;52.122;5.404;2023-05-22T10:13:29;101621.06;;;21.35;74.53
71974;BME280;59840;52.122;5.404;2023-05-22T10:15:55;101622.25;;;21.43;79.98
71974;BME280;59840;52.122;5.404;2023-05-22T10:18:23;101626.75;;;21.48;71.19
71974;BME280;59840;52.122;5.404;2023-05-22T10:20:50;101627.22;;;21.50;74.29
71974;BME280;59840;52.122;5.404;2023-05-22T10:23:17;101615.56;;;21.54;75.90
71974;BME280;59840;52.122;5.404;2023-05-22T10:25:44;101619.25;;;21.58;75.27
71974;BME280;59840;52.122;5.404;2023-05-22T10:28:20;101617.97;;;21.69;74.73
71974;BME280;59840;52.122;5.404;2023-05-22T10:30:59;101611.78;;;21.83;75.62
71974;BME280;59840;52.122;5.404;2023-05-22T10:33:43;101608.78;;;21.84;72.54
71974;BME280;59840;52.122;5.404;2023-05-22T10:36:19;101605.19;;;21.89;72.48
71974;BME280;59840;52.122;5.404;2023-05-22T10:41:24;101602.59;;;21.97;71.34
71974;BME280;59840;52.122;5.404;2023-05-22T10:43:55;101592.16;;;21.96;73.98
71974;BME280;59840;52.122;5.404;2023-05-22T10:46:21;101596.34;;;21.88;69.29
71974;BME280;59840;52.122;5.404;2023-05-22T10:48:53;101600.63;;;21.89;70.22
71974;BME280;59840;52.122;5.404;2023-05-22T10:51:21;101593.75;;;21.97;72.92
71974;BME280;59840;52.122;5.404;2023-05-22T10:53:57;101589.09;;;22.02;70.72
71974;BME280;59840;52.122;5.404;2023-05-22T10:56:31;101603.59;;;22.15;72.44
71974;BME280;59840;52.122;5.404;2023-05-22T10:59:03;101600.47;;;22.22;72.53
71974;BME280;59840;52.122;5.404;2023-05-22T11:01:31;101609.13;;;22.19;72.33
71974;BME280;59840;52.122;5.404;2023-05-22T11:08:58;101598.38;;;22.19;68.95
71974;BME280;59840;52.122;5.404;2023-05-22T11:11:26;101602.84;;;22.23;69.31
71974;BME280;59840;52.122;5.404;2023-05-22T11:14:00;101602.19;;;22.40;70.70
71974;BME280;59840;52.122;5.404;2023-05-22T11:16:32;101588.16;;;22.43;67.09
71974;BME280;59840;52.122;5.404;2023-05-22T11:19:03;101579.09;;;22.39;66.14
71974;BME280;59840;52.122;5.404;2023-05-22T11:21:44;101582.56;;;22.39;67.30
71974;BME280;59840;52.122;5.404;2023-05-22T11:24:14;101576.28;;;22.44;71.37
71974;BME280;59840;52.122;5.404;2023-05-22T11:26:42;101579.88;;;22.39;68.32
71974;BME280;59840;52.122;5.404;2023-05-22T11:29:09;101580.16;;;22.52;68.96
71974;BME280;59840;52.122;5.404;2023-05-22T11:31:36;101573.09;;;22.42;67.86
71974;BME280;59840;52.122;5.404;2023-05-22T11:34:03;101572.19;;;22.47;68.53
71974;BME280;59840;52.122;5.404;2023-05-22T11:36:30;101569.72;;;22.59;65.70
71974;BME280;59840;52.122;5.404;2023-05-22T11:38:57;101570.28;;;22.69;65.35
71974;BME280;59840;52.122;5.404;2023-05-22T11:41:32;101571.69;;;22.67;67.23
71974;BME280;59840;52.122;5.404;2023-05-22T11:44:00;101572.66;;;22.71;64.70
71974;BME280;59840;52.122;5.404;2023-05-22T11:46:27;101572.16;;;22.69;63.40
71974;BME280;59840;52.122;5.404;2023-05-22T11:48:55;101568.81;;;22.63;63.68
71974;BME280;59840;52.122;5.404;2023-05-22T11:51:22;101563.25;;;22.60;64.99
71974;BME280;59840;52.122;5.404;2023-05-22T11:53:48;101553.63;;;22.67;63.47
71974;BME280;59840;52.122;5.404;2023-05-22T11:56:18;101562.56;;;22.77;63.91
71974;BME280;59840;52.122;5.404;2023-05-22T11:58:50;101557.72;;;22.87;63.47
71974;BME280;59840;52.122;5.404;2023-05-22T12:01:17;101560.94;;;22.98;60.33
71974;BME280;59840;52.122;5.404;2023-05-22T12:03:43;101567.47;;;23.05;58.52
71974;BME280;59840;52.122;5.404;2023-05-22T12:06:10;101562.75;;;23.11;59.55
71974;BME280;59840;52.122;5.404;2023-05-22T12:08:39;101561.50;;;23.17;59.43
71974;BME280;59840;52.122;5.404;2023-05-22T12:11:05;101566.91;;;23.26;63.04
71974;BME280;59840;52.122;5.404;2023-05-22T12:13:32;101562.66;;;23.33;61.49
71974;BME280;59840;52.122;5.404;2023-05-22T12:15:59;101560.44;;;23.35;65.34
71974;BME280;59840;52.122;5.404;2023-05-22T12:18:35;101565.31;;;23.56;65.37
71974;BME280;59840;52.122;5.404;2023-05-22T12:21:05;101558.66;;;23.79;64.54
71974;BME280;59840;52.122;5.404;2023-05-22T12:23:31;101556.00;;;23.88;65.93
71974;BME280;59840;52.122;5.404;2023-05-22T12:26:07;101561.22;;;23.84;61.18
71974;BME280;59840;52.122;5.404;2023-05-22T12:28:34;101559.63;;;23.75;59.74
71974;BME280;59840;52.122;5.404;2023-05-22T12:31:00;101555.97;;;23.79;60.34
71974;BME280;59840;52.122;5.404;2023-05-22T12:33:28;101564.69;;;23.76;58.81
71974;BME280;59840;52.122;5.404;2023-05-22T12:35:56;101561.66;;;23.69;61.05
71974;BME280;59840;52.122;5.404;2023-05-22T12:38:30;101562.56;;;23.47;61.95
71974;BME280;59840;52.122;5.404;2023-05-22T12:41:00;101554.72;;;23.28;61.21
71974;BME280;59840;52.122;5.404;2023-05-22T12:43:26;101563.09;;;23.18;64.15
71974;BME280;59840;52.122;5.404;2023-05-22T12:45:53;101560.56;;;23.22;65.68
71974;BME280;59840;52.122;5.404;2023-05-22T12:48:20;101557.13;;;23.38;62.35
71974;BME280;59840;52.122;5.404;2023-05-22T12:50:46;101561.75;;;23.47;61.98
71974;BME280;59840;52.122;5.404;2023-05-22T12:53:13;101561.41;;;23.39;61.83
71974;BME280;59840;52.122;5.404;2023-05-22T12:55:40;101564.38;;;23.29;64.10
71974;BME280;59840;52.122;5.404;2023-05-22T12:58:07;101560.41;;;23.18;64.46
71974;BME280;59840;52.122;5.404;2023-05-22T13:00:34;101556.44;;;23.24;65.12
71974;BME280;59840;52.122;5.404;2023-05-22T13:03:00;101572.31;;;23.34;66.66
71974;BME280;59840;52.122;5.404;2023-05-22T13:05:28;101577.09;;;22.98;67.82
71974;BME280;59840;52.122;5.404;2023-05-22T13:07:55;101578.78;;;22.63;69.69
71974;BME280;59840;52.122;5.404;2023-05-22T13:10:21;101576.91;;;22.41;69.28
71974;BME280;59840;52.122;5.404;2023-05-22T13:12:48;101583.22;;;22.23;69.68
71974;BME280;59840;52.122;5.404;2023-05-22T13:15:17;101589.66;;;22.13;70.61